createdAt,value
2023-03-18T00:01:20.046Z,43.61
2023-03-18T00:11:23.825Z,43.43
2023-03-18T00:21:27.448Z,43.74
2023-03-18T00:31:31.583Z,43.91
2023-03-18T00:41:38.390Z,44.11
2023-03-18T00:51:45.839Z,44.26
2023-03-18T01:01:51.387Z,44.35
2023-03-18T01:11:56.940Z,44.44
2023-03-18T01:22:02.667Z,44.33
2023-03-18T01:32:10.114Z,44.50
2023-03-18T01:42:14.790Z,44.34
2023-03-18T01:52:23.585Z,44.20
2023-03-18T02:02:28.886Z,44.06
2023-03-18T02:12:41.263Z,44.06
2023-03-18T02:23:16.534Z,43.76
2023-03-18T02:33:28.315Z,43.99
2023-03-18T02:43:34.963Z,43.90
2023-03-18T02:53:46.077Z,44.10
2023-03-18T03:03:50.455Z,43.91
2023-03-18T03:13:54.385Z,43.95
2023-03-18T03:24:00.430Z,43.99
2023-03-18T03:34:04.440Z,43.81
2023-03-18T03:44:08.793Z,44.07
2023-03-18T03:54:15.163Z,44.21
2023-03-18T04:04:19.132Z,44.38
2023-03-18T04:14:23.043Z,44.45
2023-03-18T04:24:28.324Z,44.41
2023-03-18T04:34:32.911Z,44.51
2023-03-18T04:44:38.758Z,44.56
2023-03-18T04:54:46.662Z,44.49
2023-03-18T05:04:51.876Z,44.33
2023-03-18T05:14:58.029Z,44.23
2023-03-18T05:25:02.794Z,43.76
2023-03-18T05:35:10.680Z,42.76
2023-03-18T05:45:36.834Z,42.05
2023-03-18T05:55:46.437Z,41.15
2023-03-18T06:05:53.285Z,40.59
2023-03-18T06:16:00.492Z,39.69
2023-03-18T06:26:05.766Z,39.18
2023-03-18T06:36:18.574Z,38.71
2023-03-18T06:46:25.593Z,38.11
2023-03-18T06:56:33.381Z,37.88
2023-03-18T07:06:45.121Z,37.63
2023-03-18T07:16:51.365Z,36.93
2023-03-18T07:27:01.600Z,36.73
2023-03-18T07:37:05.475Z,35.95
2023-03-18T07:47:09.252Z,35.48
2023-03-18T07:57:16.643Z,34.85
2023-03-18T08:07:20.850Z,34.35
2023-03-18T08:17:28.579Z,33.35
2023-03-18T08:27:32.175Z,32.31
2023-03-18T08:37:38.518Z,31.62
2023-03-18T08:47:42.260Z,30.61
2023-03-18T08:57:46.021Z,30.11
2023-03-18T09:07:49.892Z,30.64
2023-03-18T09:18:10.239Z,30.00
2023-03-18T09:28:16.885Z,29.62
2023-03-18T09:38:21.265Z,29.48
2023-03-18T09:48:34.853Z,29.60
2023-03-18T09:58:57.964Z,29.56
2023-03-18T10:09:11.165Z,29.26
2023-03-18T10:19:15.569Z,29.01
2023-03-18T10:29:48.482Z,28.98
2023-03-18T10:39:53.900Z,28.52
2023-03-18T10:50:46.572Z,28.25
2023-03-18T11:00:52.098Z,27.82
2023-03-18T11:10:55.865Z,27.36
2023-03-18T11:21:01.579Z,27.35
2023-03-18T11:31:08.141Z,27.14
2023-03-18T11:41:19.526Z,26.71
2023-03-18T11:51:34.466Z,26.52
2023-03-18T12:02:12.496Z,26.23
2023-03-18T12:12:32.043Z,26.27
2023-03-18T12:22:39.541Z,26.21
2023-03-18T12:33:06.654Z,25.83
2023-03-18T12:43:55.129Z,25.96
2023-03-18T12:54:11.013Z,26.27
2023-03-18T13:04:25.277Z,26.32
2023-03-18T13:15:10.526Z,26.75
2023-03-18T13:25:37.562Z,27.02
2023-03-18T13:36:03.564Z,26.80
2023-03-18T13:46:28.580Z,26.74
2023-03-18T13:56:47.717Z,27.15
2023-03-18T14:07:19.407Z,27.34
2023-03-18T14:17:47.552Z,27.25
2023-03-18T14:27:59.487Z,27.13
2023-03-18T14:38:26.649Z,27.30
2023-03-18T14:48:33.854Z,27.66
2023-03-18T14:58:39.492Z,28.01
2023-03-18T15:08:52.741Z,28.44
2023-03-18T15:18:56.404Z,28.73
2023-03-18T15:29:29.496Z,29.02
2023-03-18T15:39:37.687Z,29.65
2023-03-18T15:49:54.985Z,30.17
2023-03-18T16:00:00.411Z,30.63
2023-03-18T16:10:04.366Z,30.90
2023-03-18T16:20:21.932Z,31.18
2023-03-18T16:30:29.582Z,31.69
2023-03-18T16:40:34.930Z,32.35
2023-03-18T16:50:43.007Z,32.49
2023-03-18T17:00:48.425Z,32.82
2023-03-18T17:10:58.631Z,33.06
2023-03-18T17:21:05.660Z,33.45
2023-03-18T17:31:14.387Z,33.36
2023-03-18T17:41:21.330Z,33.44
2023-03-18T17:51:27.750Z,33.82
2023-03-18T18:01:31.526Z,33.89
2023-03-18T18:11:40.262Z,34.19
2023-03-18T18:21:46.554Z,34.67
2023-03-18T18:31:51.884Z,35.01
2023-03-18T18:41:59.299Z,35.38
2023-03-18T18:52:03.310Z,35.68
2023-03-18T19:02:31.441Z,35.89
2023-03-18T19:12:36.982Z,36.36
2023-03-18T19:22:43.484Z,36.48
2023-03-18T19:32:47.333Z,36.79
2023-03-18T19:42:51.444Z,37.01
2023-03-18T19:52:56.593Z,37.47
2023-03-18T20:03:03.095Z,37.49
2023-03-18T20:13:08.596Z,37.69
2023-03-18T20:23:22.606Z,37.98
2023-03-18T20:33:28.112Z,38.06
2023-03-18T20:43:32.434Z,38.31
2023-03-18T20:53:40.742Z,38.32
2023-03-18T21:03:45.176Z,38.66
2023-03-18T21:13:51.750Z,38.66
2023-03-18T21:24:01.205Z,38.95
2023-03-18T21:34:06.031Z,39.16
2023-03-18T21:44:13.498Z,39.48
2023-03-18T21:54:19.000Z,39.56
2023-03-18T22:04:26.684Z,39.70
2023-03-18T22:14:30.359Z,39.63
2023-03-18T22:24:34.060Z,39.84
2023-03-18T22:34:39.181Z,39.93
2023-03-18T22:44:42.967Z,40.11
2023-03-18T22:54:47.639Z,40.20
2023-03-18T23:04:54.425Z,40.28
2023-03-18T23:14:59.182Z,40.60
2023-03-18T23:25:07.348Z,40.66
2023-03-18T23:35:10.906Z,40.63
2023-03-18T23:45:17.521Z,40.79
2023-03-18T23:55:33.996Z,40.97
